Lone Tree, Illinois
Current Conditions -  °F | °C
As of 2:55 AM on Sunday 26 Oct 2014 (Local Time) from KC75 Reporting Station
Clear Clear  
Wind Chill: 40°   Ceiling: Unl
Heat Index: 40°   Visibility: 7mi
Dew Point: 34°   Wind: 0mph
Humidity: 78%   Direction: NA
Pressure: 30.03"   Gusts: NA
Location:  41.2776°N, 89.5099°W
Report Text: KC75 260755Z AUTO 00000KT 7SM CLR 04/01 A3003 RMK AO2 T00440009
Loading
Personal Weather Stations






























Interactive Weather Map
Tropical Storm Tracking
New forecast layout! Learn more

10-Day Weather Forecast

Advertisements
Track Severe Weather on mobile